createdAt,value
2018-09-19T00:01:47.637Z,91.89
2018-09-19T00:04:16.777Z,93.15
2018-09-19T00:06:46.114Z,93.12
2018-09-19T00:09:15.934Z,93.34
2018-09-19T00:11:45.807Z,93.42
2018-09-19T00:14:15.462Z,94.32
2018-09-19T00:16:45.256Z,93.97
2018-09-19T00:19:15.054Z,93.90
2018-09-19T00:21:44.084Z,94.00
2018-09-19T00:24:12.840Z,94.71
2018-09-19T00:26:42.262Z,94.85
2018-09-19T00:29:11.146Z,94.50
2018-09-19T00:31:40.271Z,94.84
2018-09-19T00:34:09.073Z,95.27
2018-09-19T00:36:37.856Z,94.62
2018-09-19T00:39:07.930Z,94.73
2018-09-19T00:41:36.641Z,95.35
2018-09-19T00:44:05.817Z,94.75
2018-09-19T00:46:34.610Z,95.18
2018-09-19T00:49:04.747Z,95.38
2018-09-19T00:51:33.546Z,95.34
2018-09-19T00:54:02.312Z,94.88
2018-09-19T00:56:31.310Z,95.41
2018-09-19T00:59:00.408Z,95.41
2018-09-19T01:01:29.560Z,95.24
2018-09-19T01:03:58.742Z,95.36
2018-09-19T01:06:28.110Z,94.95
2018-09-19T01:08:57.486Z,94.98
2018-09-19T01:11:26.950Z,94.73
2018-09-19T01:13:56.407Z,95.16
2018-09-19T01:16:37.899Z,94.85
2018-09-19T01:19:06.704Z,94.68
2018-09-19T01:21:36.412Z,94.63
2018-09-19T01:24:05.505Z,94.69
2018-09-19T01:26:34.647Z,95.41
2018-09-19T01:29:03.381Z,95.15
2018-09-19T01:31:32.383Z,95.15
2018-09-19T01:34:01.482Z,95.79
2018-09-19T01:36:30.274Z,95.34
2018-09-19T01:38:59.335Z,95.14
2018-09-19T01:41:28.366Z,95.13
2018-09-19T01:43:57.141Z,95.41
2018-09-19T01:46:26.199Z,95.16
2018-09-19T01:48:55.452Z,95.13
2018-09-19T01:51:24.532Z,94.89
2018-09-19T01:53:53.554Z,95.09
2018-09-19T01:56:22.239Z,95.29
2018-09-19T01:58:51.008Z,95.47
2018-09-19T02:01:19.775Z,95.01
2018-09-19T02:03:48.622Z,94.78
2018-09-19T02:06:17.644Z,94.52
2018-09-19T02:08:46.727Z,94.69
2018-09-19T02:11:15.508Z,94.73
2018-09-19T02:13:44.237Z,94.90
2018-09-19T02:16:13.640Z,95.38
2018-09-19T02:18:42.399Z,95.02
2018-09-19T02:21:11.187Z,95.67
2018-09-19T02:23:40.227Z,95.68
2018-09-19T02:26:13.187Z,95.60
2018-09-19T02:28:42.097Z,95.60
2018-09-19T02:31:10.746Z,96.10
2018-09-19T02:33:39.484Z,96.60
2018-09-19T02:36:08.650Z,96.62
2018-09-19T02:38:37.427Z,96.79
2018-09-19T02:41:07.027Z,98.38
2018-09-19T02:43:42.017Z,98.38
2018-09-19T02:46:11.224Z,99.26
2018-09-19T02:48:40.283Z,99.61
2018-09-19T02:51:09.057Z,99.49
2018-09-19T02:53:38.090Z,100.00
2018-09-19T02:56:07.493Z,100.00
2018-09-19T02:58:36.532Z,100.00
2018-09-19T03:01:05.793Z,100.00
2018-09-19T03:03:35.164Z,100.00
2018-09-19T03:06:04.455Z,100.00
2018-09-19T03:08:33.179Z,100.00
2018-09-19T03:11:02.037Z,100.00
2018-09-19T03:13:31.138Z,100.00
2018-09-19T03:16:00.164Z,100.00
2018-09-19T03:18:28.947Z,100.00
2018-09-19T03:20:57.765Z,100.00
2018-09-19T03:23:26.793Z,100.00
2018-09-19T03:25:55.600Z,100.00
2018-09-19T03:28:24.702Z,100.00
2018-09-19T03:30:54.341Z,100.00
2018-09-19T03:33:23.392Z,100.00
2018-09-19T03:35:52.715Z,100.00
2018-09-19T03:38:21.787Z,100.00
2018-09-19T03:40:50.921Z,100.00
2018-09-19T03:43:19.671Z,100.00
2018-09-19T03:45:48.420Z,100.00
2018-09-19T03:48:17.293Z,100.00
2018-09-19T03:50:46.352Z,100.00
2018-09-19T03:53:15.689Z,100.00
2018-09-19T03:55:44.756Z,100.00
2018-09-19T03:58:13.536Z,100.00
2018-09-19T04:00:42.514Z,100.00
2018-09-19T04:03:11.292Z,100.00
2018-09-19T04:05:40.349Z,100.00
2018-09-19T04:08:09.547Z,100.00
2018-09-19T04:10:38.363Z,100.00
2018-09-19T04:13:07.485Z,100.00
2018-09-19T04:15:36.570Z,100.00
2018-09-19T04:18:05.347Z,100.00
2018-09-19T04:20:34.307Z,100.00
2018-09-19T04:23:03.918Z,100.00
2018-09-19T04:25:32.884Z,100.00
2018-09-19T04:28:01.918Z,100.00
2018-09-19T04:30:30.977Z,100.00
2018-09-19T04:33:00.016Z,100.00
2018-09-19T04:35:28.751Z,100.00
2018-09-19T04:37:57.506Z,100.00
2018-09-19T04:40:26.834Z,100.00
2018-09-19T04:42:56.155Z,100.00
2018-09-19T04:45:24.849Z,100.00
2018-09-19T04:47:54.214Z,100.00
2018-09-19T04:50:23.530Z,100.00
2018-09-19T04:52:53.187Z,100.00
2018-09-19T04:55:22.212Z,100.00
2018-09-19T04:57:50.950Z,100.00
2018-09-19T05:00:19.954Z,100.00
2018-09-19T05:02:48.968Z,100.00
2018-09-19T05:05:17.859Z,100.00
2018-09-19T05:07:47.157Z,100.00
2018-09-19T05:10:15.922Z,100.00
2018-09-19T05:12:44.661Z,100.00
2018-09-19T05:15:13.372Z,100.00
2018-09-19T05:17:42.141Z,100.00
2018-09-19T05:20:10.866Z,100.00
2018-09-19T05:22:40.058Z,100.00
2018-09-19T05:25:08.827Z,100.00
2018-09-19T05:27:38.155Z,100.00
2018-09-19T05:30:06.896Z,100.00
2018-09-19T05:32:35.916Z,100.00
2018-09-19T05:35:05.066Z,100.00
2018-09-19T05:37:34.441Z,100.00
2018-09-19T05:40:03.220Z,100.00
2018-09-19T05:42:31.911Z,100.00
2018-09-19T05:45:01.213Z,100.00
2018-09-19T05:47:30.386Z,100.00
2018-09-19T05:49:59.095Z,100.00
2018-09-19T05:52:27.979Z,100.00
2018-09-19T05:54:58.245Z,100.00
2018-09-19T05:57:27.931Z,100.00
2018-09-19T05:59:56.648Z,100.00
2018-09-19T06:02:25.386Z,100.00
2018-09-19T06:04:54.191Z,100.00
2018-09-19T06:07:23.195Z,100.00
2018-09-19T06:09:52.527Z,100.00
2018-09-19T06:12:21.513Z,100.00
2018-09-19T06:14:50.731Z,100.00
2018-09-19T06:17:19.790Z,100.00
2018-09-19T06:19:48.872Z,100.00
2018-09-19T06:22:17.569Z,100.00
2018-09-19T06:24:46.307Z,100.00
2018-09-19T06:27:15.057Z,100.00
2018-09-19T06:29:43.794Z,100.00
2018-09-19T06:32:12.828Z,100.00
2018-09-19T06:34:42.199Z,100.00
2018-09-19T06:37:11.168Z,100.00
2018-09-19T06:39:40.467Z,100.00
2018-09-19T06:42:09.583Z,100.00
2018-09-19T06:44:38.317Z,100.00
2018-09-19T06:47:07.083Z,100.00
2018-09-19T06:49:36.093Z,100.00
2018-09-19T06:52:04.931Z,100.00
2018-09-19T06:54:33.942Z,100.00
2018-09-19T06:57:02.670Z,100.00
2018-09-19T06:59:31.749Z,100.00
2018-09-19T07:02:00.597Z,100.00
2018-09-19T07:04:29.674Z,100.00
2018-09-19T07:06:58.979Z,100.00
2018-09-19T07:09:28.187Z,100.00
2018-09-19T07:11:56.913Z,100.00
2018-09-19T07:14:26.042Z,100.00
2018-09-19T07:16:55.058Z,99.82
2018-09-19T07:19:23.858Z,100.00
2018-09-19T07:21:52.877Z,99.37
2018-09-19T07:24:22.528Z,99.38
2018-09-19T07:26:51.564Z,99.23
2018-09-19T07:29:20.294Z,98.59
2018-09-19T07:31:49.392Z,97.41
2018-09-19T07:34:18.175Z,95.88
2018-09-19T07:36:46.942Z,94.32
2018-09-19T07:39:16.025Z,94.03
2018-09-19T07:57:39.556Z,87.74
2018-09-19T08:00:08.346Z,86.92
2018-09-19T08:02:37.746Z,85.53
2018-09-19T08:05:06.578Z,83.98
2018-09-19T08:07:35.967Z,84.38
2018-09-19T08:10:05.081Z,82.04
2018-09-19T08:12:34.265Z,81.33
2018-09-19T08:15:03.137Z,81.43
2018-09-19T08:17:32.581Z,80.57
2018-09-19T08:20:01.656Z,79.62
2018-09-19T08:22:30.858Z,78.06
2018-09-19T08:25:00.139Z,78.89
2018-09-19T08:27:28.962Z,78.39
2018-09-19T08:29:57.724Z,78.39
2018-09-19T08:32:26.737Z,76.66
2018-09-19T08:34:55.922Z,76.59
2018-09-19T08:37:25.030Z,76.46
2018-09-19T08:39:53.817Z,75.25
2018-09-19T08:42:22.672Z,74.76
2018-09-19T08:44:51.462Z,73.37
2018-09-19T08:47:20.289Z,73.08
2018-09-19T08:49:49.401Z,72.97
2018-09-19T08:52:18.461Z,73.23
2018-09-19T08:54:47.589Z,71.96
2018-09-19T08:57:16.694Z,71.26
2018-09-19T08:59:45.757Z,71.05
2018-09-19T09:02:14.929Z,69.76
2018-09-19T09:04:44.050Z,71.14
2018-09-19T09:07:12.890Z,68.71
2018-09-19T09:09:42.069Z,68.76
2018-09-19T09:12:10.988Z,68.38
2018-09-19T09:14:40.422Z,68.74
2018-09-19T09:17:09.346Z,68.59
2018-09-19T09:19:38.665Z,68.22
2018-09-19T09:22:08.795Z,69.81
2018-09-19T09:24:37.664Z,69.08
2018-09-19T09:27:07.238Z,68.59
2018-09-19T09:29:36.114Z,69.21
2018-09-19T09:32:05.404Z,67.94
2018-09-19T09:34:34.577Z,66.72
2018-09-19T09:37:04.417Z,66.24
2018-09-19T09:39:33.668Z,66.20
2018-09-19T09:42:02.589Z,65.44
2018-09-19T09:44:31.420Z,65.75
2018-09-19T09:47:00.976Z,65.25
2018-09-19T09:49:30.257Z,65.25
2018-09-19T09:51:59.173Z,63.89
2018-09-19T09:54:28.030Z,64.20
2018-09-19T09:56:57.545Z,63.72
2018-09-19T09:59:26.397Z,63.42
2018-09-19T10:01:55.344Z,63.50
2018-09-19T10:04:24.652Z,62.31
2018-09-19T10:06:53.926Z,62.27
2018-09-19T10:09:22.974Z,62.58
2018-09-19T10:11:51.917Z,62.50
2018-09-19T10:14:20.818Z,61.86
2018-09-19T10:16:50.039Z,60.80
2018-09-19T10:19:18.894Z,61.14
2018-09-19T10:21:47.793Z,61.76
2018-09-19T10:24:16.659Z,62.13
2018-09-19T10:26:45.842Z,61.98
2018-09-19T10:29:14.981Z,62.05
2018-09-19T10:31:43.896Z,61.74
2018-09-19T10:34:12.829Z,60.39
2018-09-19T10:36:42.031Z,60.71
2018-09-19T10:39:10.917Z,61.41
2018-09-19T10:41:40.421Z,62.20
2018-09-19T10:44:09.388Z,61.02
2018-09-19T10:46:38.372Z,61.24
2018-09-19T10:49:07.269Z,60.83
2018-09-19T10:51:36.515Z,61.77
2018-09-19T10:54:06.122Z,61.74
2018-09-19T10:56:35.293Z,61.37
2018-09-19T10:59:04.437Z,60.47
2018-09-19T11:01:33.315Z,58.34
2018-09-19T11:04:02.418Z,57.10
2018-09-19T11:06:31.327Z,58.15
2018-09-19T11:09:00.286Z,58.23
2018-09-19T11:11:29.193Z,57.50
2018-09-19T11:13:58.392Z,58.39
2018-09-19T11:16:27.399Z,58.02
2018-09-19T11:18:56.566Z,59.13
2018-09-19T11:21:26.272Z,57.09
2018-09-19T11:23:55.254Z,58.49
2018-09-19T11:26:24.207Z,59.02
2018-09-19T11:28:53.083Z,58.28
2018-09-19T11:31:22.563Z,58.35
2018-09-19T11:33:51.518Z,58.27
2018-09-19T11:36:20.798Z,56.61
2018-09-19T11:38:51.431Z,56.36
2018-09-19T11:41:21.122Z,57.08
2018-09-19T11:43:50.030Z,55.90
2018-09-19T11:46:18.914Z,56.79
2018-09-19T11:48:47.721Z,55.33
2018-09-19T11:51:16.685Z,54.41
2018-09-19T11:53:46.602Z,53.84
2018-09-19T11:56:16.003Z,54.10
2018-09-19T11:58:45.089Z,52.03
2018-09-19T12:01:15.206Z,50.91
2018-09-19T12:03:44.322Z,50.08
2018-09-19T12:06:13.695Z,49.80
2018-09-19T12:08:42.584Z,49.37
2018-09-19T12:11:11.661Z,49.14
2018-09-19T12:13:40.780Z,48.71
2018-09-19T12:16:10.006Z,48.57
2018-09-19T12:18:40.256Z,49.77
2018-09-19T12:21:09.458Z,48.46
2018-09-19T12:23:41.849Z,48.64
2018-09-19T12:26:10.776Z,47.58
2018-09-19T12:28:40.846Z,46.01
2018-09-19T12:31:10.553Z,44.79
2018-09-19T12:33:41.070Z,46.03
2018-09-19T12:36:10.164Z,45.74
2018-09-19T12:38:39.617Z,45.97
2018-09-19T12:41:08.688Z,46.49
2018-09-19T12:43:38.404Z,46.58
2018-09-19T12:46:07.531Z,45.51
2018-09-19T12:48:37.050Z,43.63
2018-09-19T12:51:06.286Z,43.78
2018-09-19T12:53:35.135Z,43.70
2018-09-19T12:56:05.243Z,43.95
2018-09-19T12:58:35.724Z,43.39
2018-09-19T13:01:04.817Z,43.59
2018-09-19T13:03:34.963Z,43.22
2018-09-19T13:06:04.097Z,44.05
2018-09-19T13:08:33.546Z,43.60
2018-09-19T13:11:02.708Z,42.60
2018-09-19T13:13:31.588Z,42.55
2018-09-19T13:16:00.982Z,41.26
2018-09-19T13:18:30.100Z,41.70
2018-09-19T13:20:59.548Z,41.40
2018-09-19T13:23:28.404Z,41.01
2018-09-19T13:25:57.543Z,41.23
2018-09-19T13:28:26.644Z,41.52
2018-09-19T13:30:56.379Z,41.43
2018-09-19T13:33:25.808Z,41.04
2018-09-19T13:35:54.892Z,42.44
2018-09-19T13:38:23.768Z,41.55
2018-09-19T13:40:52.888Z,41.44
2018-09-19T13:43:21.795Z,41.74
2018-09-19T13:45:51.024Z,41.99
2018-09-19T13:48:20.480Z,41.85
2018-09-19T13:51:11.652Z,41.12
2018-09-19T13:53:40.541Z,40.90
2018-09-19T13:56:09.406Z,41.57
2018-09-19T13:58:38.184Z,40.89
2018-09-19T14:01:07.306Z,41.29
2018-09-19T14:03:36.483Z,41.11
2018-09-19T14:06:05.289Z,41.05
2018-09-19T14:08:34.175Z,39.95
2018-09-19T14:11:02.958Z,40.95
2018-09-19T14:13:31.866Z,40.68
2018-09-19T14:16:00.980Z,39.81
2018-09-19T14:18:30.093Z,39.74
2018-09-19T14:20:59.227Z,39.48
2018-09-19T14:23:28.282Z,39.24
2018-09-19T14:25:57.613Z,39.36
2018-09-19T14:28:26.496Z,40.66
2018-09-19T14:30:55.796Z,40.46
2018-09-19T14:33:24.725Z,39.94
2018-09-19T14:35:53.976Z,40.42
2018-09-19T14:38:22.831Z,39.71
2018-09-19T14:40:52.192Z,39.92
2018-09-19T14:43:21.401Z,39.66
2018-09-19T14:45:50.677Z,40.51
2018-09-19T14:48:19.586Z,41.13
2018-09-19T14:50:48.856Z,40.66
2018-09-19T14:53:17.720Z,40.60
2018-09-19T14:55:47.016Z,40.55
2018-09-19T14:58:15.826Z,40.29
2018-09-19T15:00:44.677Z,41.65
2018-09-19T15:03:13.522Z,41.58
2018-09-19T15:05:42.641Z,40.81
2018-09-19T15:08:11.558Z,41.49
2018-09-19T15:10:40.696Z,40.87
2018-09-19T15:13:10.189Z,41.39
2018-09-19T15:15:39.229Z,41.55
2018-09-19T15:18:08.358Z,41.58
2018-09-19T15:20:37.545Z,41.04
2018-09-19T15:23:07.467Z,41.98
2018-09-19T15:25:36.669Z,42.28
2018-09-19T15:28:05.552Z,42.71
2018-09-19T15:30:34.632Z,42.70
2018-09-19T15:33:04.365Z,43.28
2018-09-19T15:35:33.547Z,43.69
2018-09-19T15:38:02.756Z,43.49
2018-09-19T15:40:31.884Z,44.74
2018-09-19T15:43:00.740Z,44.17
2018-09-19T15:45:29.576Z,44.55
2018-09-19T15:47:58.763Z,45.12
2018-09-19T15:50:27.654Z,45.02
2018-09-19T15:52:56.456Z,45.70
2018-09-19T15:55:25.626Z,46.52
2018-09-19T15:57:54.801Z,46.46
2018-09-19T16:00:23.698Z,47.10
2018-09-19T16:02:53.024Z,47.96
2018-09-19T16:05:22.490Z,48.85
2018-09-19T16:07:51.580Z,48.21
2018-09-19T16:10:20.364Z,48.58
2018-09-19T16:12:49.758Z,48.83
2018-09-19T16:15:18.599Z,49.20
2018-09-19T16:17:47.461Z,49.66
2018-09-19T16:20:16.619Z,49.12
2018-09-19T16:22:45.463Z,50.09
2018-09-19T16:25:14.644Z,50.84
2018-09-19T16:27:44.014Z,51.28
2018-09-19T16:30:13.127Z,50.73
2018-09-19T16:32:42.275Z,50.49
2018-09-19T16:35:11.139Z,51.45
2018-09-19T16:37:40.150Z,52.04
2018-09-19T16:40:09.005Z,51.72
2018-09-19T16:42:38.402Z,52.58
2018-09-19T16:45:07.821Z,52.37
2018-09-19T16:47:36.661Z,52.92
2018-09-19T16:50:06.117Z,53.30
2018-09-19T16:52:34.920Z,52.81
2018-09-19T16:55:03.752Z,53.89
2018-09-19T16:57:32.825Z,53.57
2018-09-19T17:00:01.730Z,54.39
2018-09-19T17:02:30.605Z,53.63
2018-09-19T17:04:59.701Z,54.31
2018-09-19T17:07:28.493Z,54.36
2018-09-19T17:09:57.652Z,54.36
2018-09-19T17:12:26.842Z,54.40
2018-09-19T17:14:56.221Z,55.30
2018-09-19T17:17:25.297Z,55.20
2018-09-19T17:19:54.408Z,55.17
2018-09-19T17:22:25.268Z,55.66
2018-09-19T17:24:54.094Z,55.95
2018-09-19T17:27:23.145Z,56.26
2018-09-19T17:29:52.077Z,56.39
2018-09-19T17:32:21.093Z,57.25
2018-09-19T17:34:50.165Z,57.20
2018-09-19T17:37:19.659Z,57.15
2018-09-19T17:39:48.438Z,57.19
2018-09-19T17:42:17.268Z,57.57
2018-09-19T17:44:47.658Z,57.84
2018-09-19T17:47:16.652Z,58.14
2018-09-19T17:49:45.556Z,58.62
2018-09-19T17:52:14.732Z,58.60
2018-09-19T17:54:43.937Z,59.52
2018-09-19T17:57:12.863Z,59.29
2018-09-19T17:59:42.268Z,60.17
2018-09-19T18:02:11.651Z,59.55
2018-09-19T18:04:40.465Z,59.81
2018-09-19T18:07:10.308Z,60.81
2018-09-19T18:09:39.965Z,61.36
2018-09-19T18:12:08.757Z,61.13
2018-09-19T18:14:38.018Z,61.20
2018-09-19T18:17:06.989Z,60.92
2018-09-19T18:19:35.829Z,61.37
2018-09-19T18:22:04.981Z,61.44
2018-09-19T18:24:33.800Z,61.90
2018-09-19T18:27:02.635Z,62.37
2018-09-19T18:29:31.501Z,62.65
2018-09-19T18:32:00.553Z,62.70
2018-09-19T18:34:29.357Z,62.55
2018-09-19T18:36:58.192Z,62.91
2018-09-19T18:39:27.063Z,62.95
2018-09-19T18:41:55.833Z,63.31
2018-09-19T18:44:24.941Z,63.15
2018-09-19T18:46:54.410Z,63.93
2018-09-19T18:49:23.569Z,63.43
2018-09-19T18:51:52.451Z,64.29
2018-09-19T18:54:21.287Z,64.62
2018-09-19T18:56:51.016Z,64.56
2018-09-19T18:59:20.088Z,64.70
2018-09-19T19:01:49.172Z,64.92
2018-09-19T19:04:18.008Z,64.95
2018-09-19T19:06:46.862Z,65.59
2018-09-19T19:09:16.384Z,65.04
2018-09-19T19:11:45.225Z,65.25
2018-09-19T19:14:14.681Z,65.34
2018-09-19T19:16:44.935Z,65.33
2018-09-19T19:19:13.784Z,65.56
2018-09-19T19:21:43.107Z,65.87
2018-09-19T19:24:12.176Z,66.36
2018-09-19T19:26:40.992Z,66.48
2018-09-19T19:29:10.058Z,66.77
2018-09-19T19:31:39.207Z,66.82
2018-09-19T19:34:08.359Z,66.34
2018-09-19T19:36:38.383Z,67.14
2018-09-19T19:39:09.744Z,67.52
2018-09-19T19:41:38.831Z,67.46
2018-09-19T19:44:07.722Z,67.61
2018-09-19T19:46:37.027Z,68.51
2018-09-19T19:49:06.168Z,67.85
2018-09-19T19:51:34.973Z,68.66
2018-09-19T19:54:03.801Z,68.93
2018-09-19T19:56:32.661Z,69.28
2018-09-19T19:59:02.076Z,69.94
2018-09-19T20:01:30.860Z,69.94
2018-09-19T20:03:59.654Z,70.42
2018-09-19T20:06:29.424Z,70.42
2018-09-19T20:08:58.589Z,70.64
2018-09-19T20:11:27.849Z,70.45
2018-09-19T20:13:56.659Z,70.42
2018-09-19T20:16:26.285Z,70.87
2018-09-19T20:18:58.396Z,70.93
2018-09-19T20:21:27.533Z,71.27
2018-09-19T20:23:56.498Z,71.63
2018-09-19T20:26:26.289Z,71.58
2018-09-19T20:28:55.083Z,72.02
2018-09-19T20:31:24.570Z,71.68
2018-09-19T20:33:53.817Z,72.18
2018-09-19T20:36:22.973Z,71.97
2018-09-19T20:38:58.689Z,72.57
2018-09-19T20:41:27.831Z,72.53
2018-09-19T20:43:56.876Z,72.57
2018-09-19T20:46:25.709Z,72.66
2018-09-19T20:48:55.368Z,72.22
2018-09-19T20:51:24.395Z,72.72
2018-09-19T20:53:53.512Z,72.33
2018-09-19T20:56:22.325Z,72.98
2018-09-19T20:58:51.913Z,73.11
2018-09-19T21:01:21.883Z,72.96
2018-09-19T21:03:51.041Z,72.65
2018-09-19T21:06:19.838Z,72.58
2018-09-19T21:08:49.000Z,72.89
2018-09-19T21:11:17.791Z,72.93
2018-09-19T21:13:46.887Z,73.19
2018-09-19T21:16:15.974Z,73.35
2018-09-19T21:18:45.067Z,73.44
2018-09-19T21:21:14.143Z,73.50
2018-09-19T21:23:43.214Z,73.59
2018-09-19T21:26:12.023Z,73.36
2018-09-19T21:28:41.146Z,73.70
2018-09-19T21:31:10.624Z,73.83
2018-09-19T21:33:39.957Z,73.45
2018-09-19T21:36:09.615Z,73.66
2018-09-19T21:38:38.393Z,74.26
2018-09-19T21:41:07.985Z,73.58
2018-09-19T21:43:37.064Z,73.90
2018-09-19T21:46:06.380Z,74.41
2018-09-19T21:48:35.216Z,73.92
2018-09-19T21:51:03.977Z,73.90
2018-09-19T21:53:33.013Z,74.31
2018-09-19T21:56:01.906Z,74.38
2018-09-19T21:58:30.704Z,74.07
2018-09-19T22:01:05.050Z,73.96
2018-09-19T22:03:33.901Z,74.97
2018-09-19T22:06:03.693Z,75.07
2018-09-19T22:08:32.841Z,74.67
2018-09-19T22:11:01.964Z,75.22
2018-09-19T22:13:30.996Z,75.34
2018-09-19T22:15:59.877Z,75.96
2018-09-19T22:18:29.266Z,76.37
2018-09-19T22:20:58.190Z,76.20
2018-09-19T22:23:28.437Z,76.67
2018-09-19T22:25:58.246Z,76.50
2018-09-19T22:28:27.342Z,76.75
2018-09-19T22:30:56.222Z,77.07
2018-09-19T22:33:25.399Z,77.23
2018-09-19T22:35:54.578Z,77.46
2018-09-19T22:38:23.996Z,78.65
2018-09-19T22:40:53.198Z,78.26
2018-09-19T22:43:23.219Z,78.10
2018-09-19T22:45:52.364Z,78.31
2018-09-19T22:48:21.555Z,78.50
2018-09-19T22:50:50.346Z,78.77
2018-09-19T22:53:19.107Z,78.63
2018-09-19T22:55:47.949Z,78.95
2018-09-19T22:58:17.068Z,79.22
2018-09-19T23:00:45.862Z,78.64
2018-09-19T23:03:14.955Z,79.18
2018-09-19T23:05:43.764Z,78.85
2018-09-19T23:08:12.583Z,79.11
2018-09-19T23:10:41.712Z,78.77
2018-09-19T23:13:10.833Z,78.56
2018-09-19T23:15:39.924Z,78.89
2018-09-19T23:18:09.431Z,79.05
2018-09-19T23:20:38.594Z,78.83
2018-09-19T23:23:07.697Z,79.08
2018-09-19T23:25:36.709Z,79.52
2018-09-19T23:28:05.603Z,79.08
2018-09-19T23:30:35.324Z,79.09
2018-09-19T23:33:04.840Z,78.98
2018-09-19T23:35:34.672Z,79.36
2018-09-19T23:38:04.047Z,79.29
2018-09-19T23:40:33.157Z,79.81
2018-09-19T23:43:02.644Z,79.33
2018-09-19T23:45:32.013Z,79.53
2018-09-19T23:48:01.149Z,79.58
2018-09-19T23:50:30.652Z,80.08
2018-09-19T23:52:59.552Z,80.54
2018-09-19T23:55:28.581Z,79.79
2018-09-19T23:57:57.658Z,80.81
